Time;durP1;ratioP1;P1;durP2;ratioP2;P2;SDS_P1;SDS_P2;PMS_P1;PMS_P2;Temp;Humidity;BMP_temperature;BMP_pressure;BME280_temperature;BME280_humidity;BME280_pressure;Samples;Min_cycle;Max_cycle;Signal;HPM_P1;HPM_P2
2022/04/30 00:02:15;;;;;;;14.20;7.90;;;;;;;10.15;64.16;100307.14;109393;1274;22485;-64
2022/04/30 00:04:48;;;;;;;12.50;7.40;;;;;;;10.13;64.45;100308.83;109406;1274;22485;-64
2022/04/30 00:07:19;;;;;;;15.20;8.10;;;;;;;10.10;64.75;100310.23;109286;1274;137212;-64
2022/04/30 00:09:48;;;;;;;11.20;6.80;;;;;;;10.07;65.31;100308.96;109303;1276;23574;-64
2022/04/30 00:12:19;;;;;;;13.50;7.80;;;;;;;9.99;65.69;100306.20;109093;1276;138798;-64
2022/04/30 00:14:47;;;;;;;14.70;7.60;;;;;;;9.94;66.17;100308.27;109207;1274;22532;-64
2022/04/30 00:17:17;;;;;;;11.20;7.00;;;;;;;9.89;66.34;100308.25;109285;1274;138191;-64
2022/04/30 00:19:46;;;;;;;14.60;7.70;;;;;;;9.86;66.69;100306.25;109361;1274;22451;-64
2022/04/30 00:22:14;;;;;;;11.40;6.50;;;;;;;9.83;67.16;100303.61;109354;1274;22514;-64
2022/04/30 00:24:42;;;;;;;11.40;7.10;;;;;;;9.81;67.40;100304.33;109282;1274;139407;-64
2022/04/30 00:27:11;;;;;;;12.50;8.20;;;;;;;9.79;67.69;100300.44;109394;1274;22432;-64
2022/04/30 00:29:40;;;;;;;15.60;7.90;;;;;;;9.77;68.00;100297.48;109137;1274;138505;-64
2022/04/30 00:32:09;;;;;;;11.40;7.60;;;;;;;9.72;68.18;100292.52;109335;1274;22428;-64
2022/04/30 00:34:37;;;;;;;9.30;6.40;;;;;;;9.72;68.34;100289.69;109335;1274;23116;-64
2022/04/30 00:37:05;;;;;;;8.50;6.00;;;;;;;9.71;68.42;100289.11;109108;1274;138502;-64
2022/04/30 00:39:34;;;;;;;8.10;5.10;;;;;;;9.72;68.35;100289.52;109389;1274;22444;-64
2022/04/30 00:42:03;;;;;;;6.40;4.60;;;;;;;9.74;68.30;100286.14;109261;1274;139703;-64
2022/04/30 00:44:31;;;;;;;10.90;5.90;;;;;;;9.77;68.18;100283.50;109379;1274;22391;-64
2022/04/30 00:47:00;;;;;;;11.70;5.40;;;;;;;9.79;67.88;100279.48;109227;1274;137638;-63
2022/04/30 00:49:28;;;;;;;7.50;4.90;;;;;;;9.82;67.85;100275.40;109364;1274;22436;-64
2022/04/30 00:51:58;;;;;;;8.70;4.90;;;;;;;9.85;67.84;100273.52;109345;1274;22420;-64
2022/04/30 00:54:28;;;;;;;6.60;4.20;;;;;;;9.88;67.77;100270.11;109078;1274;138464;-64
2022/04/30 00:56:58;;;;;;;6.40;4.70;;;;;;;9.91;67.61;100272.25;109237;1273;22417;-64
2022/04/30 00:59:26;;;;;;;8.60;4.80;;;;;;;9.92;67.59;100272.40;109171;1274;139029;-64
2022/04/30 01:01:59;;;;;;;7.10;4.40;;;;;;;9.93;67.53;100266.81;109417;1274;22387;-64
2022/04/30 01:04:54;;;;;;;8.80;5.50;;;;;;;9.95;67.57;100261.89;109390;1274;22488;-64
2022/04/30 01:07:23;;;;;;;15.60;5.60;;;;;;;9.96;67.61;100263.20;105163;1274;137475;-63
2022/04/30 01:09:53;;;;;;;7.90;4.90;;;;;;;9.97;67.84;100262.04;104779;1275;23974;-63
2022/04/30 01:12:23;;;;;;;9.30;5.60;;;;;;;9.97;68.13;100256.72;109309;1274;139174;-63
2022/04/30 01:14:52;;;;;;;8.20;4.90;;;;;;;9.98;68.28;100257.38;109253;1274;23377;-64
2022/04/30 01:17:21;;;;;;;7.60;4.90;;;;;;;9.98;68.30;100256.89;109261;1274;138366;-63
2022/04/30 01:19:51;;;;;;;8.90;5.00;;;;;;;9.95;68.60;100259.17;109421;1274;22436;-64
2022/04/30 01:22:24;;;;;;;8.00;5.40;;;;;;;9.91;68.86;100260.57;109258;1274;22421;-64
2022/04/30 01:25:00;;;;;;;9.10;5.00;;;;;;;9.89;68.71;100261.71;109019;1274;138302;-64
2022/04/30 01:27:28;;;;;;;9.60;5.40;;;;;;;9.90;68.56;100254.59;109259;1274;22465;-64
2022/04/30 01:30:03;;;;;;;8.90;5.70;;;;;;;9.91;68.73;100256.05;109178;1274;137934;-64
2022/04/30 01:38:06;;;;;;;;;;;;;;;9.89;69.20;100259.30;109328;1274;22451;-63
2022/04/30 01:40:35;;;;;;;8.50;5.20;;;;;;;9.87;69.23;100261.75;109336;1274;22430;-63
2022/04/30 01:43:05;;;;;;;7.90;5.20;;;;;;;9.86;69.20;100258.30;109308;1274;138383;-64
2022/04/30 01:45:33;;;;;;;10.60;6.00;;;;;;;9.86;69.07;100255.79;109223;1274;22464;-64
2022/04/30 01:48:03;;;;;;;10.20;5.90;;;;;;;9.87;69.27;100253.77;109310;1274;138686;-64
2022/04/30 01:50:34;;;;;;;7.50;4.90;;;;;;;9.88;69.51;100247.80;109376;1274;22458;-63
2022/04/30 01:53:02;;;;;;;10.20;4.90;;;;;;;9.87;69.51;100248.32;109300;1274;138110;-62
2022/04/30 01:55:30;;;;;;;11.70;5.20;;;;;;;9.86;69.31;100244.48;109401;1274;22528;-63
2022/04/30 01:58:03;;;;;;;8.70;5.80;;;;;;;9.86;69.22;100245.40;109391;1274;22419;-63
2022/04/30 02:00:31;;;;;;;9.00;5.40;;;;;;;9.85;69.52;100247.81;109310;1274;137357;-64
2022/04/30 02:03:04;;;;;;;10.70;5.70;;;;;;;9.81;69.86;100246.75;109419;1273;22445;-64
2022/04/30 02:05:33;;;;;;;7.90;5.50;;;;;;;9.79;70.01;100242.73;109300;1273;138081;-63
2022/04/30 02:08:09;;;;;;;7.10;4.90;;;;;;;9.78;70.26;100247.34;109256;1274;22547;-64
2022/04/30 02:10:41;;;;;;;9.90;6.20;;;;;;;9.75;70.49;100245.14;109398;1274;23373;-64
2022/04/30 02:13:10;;;;;;;8.70;5.70;;;;;;;9.72;70.52;100241.95;109298;1274;137565;-64
2022/04/30 02:15:41;;;;;;;6.70;4.70;;;;;;;9.70;70.79;100241.95;109401;1274;22287;-64
2022/04/30 02:18:12;;;;;;;13.20;6.10;;;;;;;9.67;71.12;100239.31;109198;1274;138233;-64
2022/04/30 02:20:44;;;;;;;7.30;5.20;;;;;;;9.64;70.90;100234.65;109399;1274;22533;-64
2022/04/30 02:23:14;;;;;;;9.50;4.90;;;;;;;9.63;70.92;100238.86;109269;1274;138630;-63
2022/04/30 02:25:42;;;;;;;7.80;4.70;;;;;;;9.62;71.29;100238.61;109181;1274;22408;-64
2022/04/30 02:28:11;;;;;;;7.10;4.90;;;;;;;9.61;71.50;100241.73;109443;1274;22414;-64
2022/04/30 02:30:43;;;;;;;9.10;5.20;;;;;;;9.60;71.07;100246.94;109246;1274;138403;-64
2022/04/30 02:33:11;;;;;;;8.50;5.40;;;;;;;9.58;70.50;100246.79;109429;1274;23210;-63
2022/04/30 02:35:44;;;;;;;10.20;6.90;;;;;;;9.59;70.29;100249.75;109258;1274;138583;-64
2022/04/30 02:38:13;;;;;;;9.00;5.80;;;;;;;9.61;70.48;100244.83;109416;1274;22449;-64
2022/04/30 02:40:41;;;;;;;9.20;5.70;;;;;;;9.63;70.45;100249.78;109357;1274;22548;-64
2022/04/30 02:43:11;;;;;;;9.40;5.30;;;;;;;9.66;70.64;100252.20;109288;1274;137681;-64
2022/04/30 02:45:40;;;;;;;10.50;5.90;;;;;;;9.68;70.96;100253.83;108504;1274;25038;-63
2022/04/30 02:48:09;;;;;;;11.50;6.20;;;;;;;9.69;71.31;100258.37;109271;1274;139409;-64
2022/04/30 02:50:37;;;;;;;19.60;10.10;;;;;;;9.68;71.54;100260.89;109370;1274;22522;-64
2022/04/30 02:53:06;;;;;;;23.00;13.40;;;;;;;9.67;71.66;100260.48;109293;1274;138790;-63
2022/04/30 02:55:35;;;;;;;20.00;12.50;;;;;;;9.67;71.87;100265.48;109431;1272;22502;-63
2022/04/30 03:00:51;;;;;;;17.40;10.40;;;;;;;9.66;72.44;100268.44;109291;1274;138550;-64
2022/04/30 03:05:50;;;;;;;16.70;10.50;;;;;;;9.68;72.55;100270.00;101779;1310;545232;-63
2022/04/30 03:08:25;;;;;;;17.50;10.80;;;;;;;9.67;72.78;100272.52;103987;1287;22592;-63
2022/04/30 03:10:55;;;;;;;21.10;11.90;;;;;;;9.67;72.83;100274.27;103936;1287;24135;-64
2022/04/30 03:13:24;;;;;;;25.30;13.90;;;;;;;9.68;73.01;100276.89;108178;1287;137731;-65
2022/04/30 03:15:53;;;;;;;25.60;13.10;;;;;;;9.69;72.66;100281.05;108252;1286;22465;-65
2022/04/30 03:23:38;;;;;;;15.70;8.70;;;;;;;9.73;72.40;100284.70;108194;1286;137328;-65
2022/04/30 03:26:10;;;;;;;16.10;8.60;;;;;;;9.74;72.01;100282.29;108409;1286;22472;-65
2022/04/30 03:28:41;;;;;;;13.70;7.50;;;;;;;9.76;71.84;100286.31;108354;1285;22644;-65
2022/04/30 03:31:10;;;;;;;11.80;7.40;;;;;;;9.78;71.80;100284.79;108331;1283;137291;-65
2022/04/30 03:33:38;;;;;;;14.90;6.50;;;;;;;9.79;71.47;100282.85;108478;1284;23126;-65
2022/04/30 03:36:09;;;;;;;13.10;5.90;;;;;;;9.79;71.18;100275.68;108396;1284;138914;-65
2022/04/30 03:38:38;;;;;;;8.70;6.20;;;;;;;9.81;70.91;100274.30;108149;1286;22535;-65
2022/04/30 03:41:06;;;;;;;7.90;5.10;;;;;;;9.82;70.86;100270.98;108283;1285;138405;-65
2022/04/30 03:43:39;;;;;;;10.90;5.10;;;;;;;9.85;70.45;100269.74;108387;1285;22470;-65
2022/04/30 03:46:07;;;;;;;8.30;5.60;;;;;;;9.86;70.21;100271.27;108424;1285;22406;-65
2022/04/30 03:48:35;;;;;;;11.90;5.50;;;;;;;9.88;70.01;100266.14;108318;1284;138038;-64
2022/04/30 03:51:05;;;;;;;11.10;6.10;;;;;;;9.88;70.22;100269.79;108453;1284;22497;-65
2022/04/30 03:53:34;;;;;;;9.90;5.20;;;;;;;9.89;70.53;100277.27;108360;1283;138033;-65
2022/04/30 03:56:02;;;;;;;7.40;4.90;;;;;;;9.91;70.77;100282.22;108379;1285;23587;-65
2022/04/30 03:58:32;;;;;;;12.90;6.20;;;;;;;9.90;70.92;100276.11;108426;1285;22544;-64
2022/04/30 04:01:00;;;;;;;11.50;6.30;;;;;;;9.90;70.97;100275.78;108333;1284;138815;-65
2022/04/30 04:03:28;;;;;;;11.80;6.60;;;;;;;9.89;70.95;100278.85;108508;1283;22531;-64
2022/04/30 04:05:58;;;;;;;10.50;5.90;;;;;;;9.88;70.64;100282.97;108354;1284;139394;-65
2022/04/30 04:08:26;;;;;;;9.30;5.90;;;;;;;9.86;70.41;100283.13;108450;1284;23247;-65
2022/04/30 04:10:55;;;;;;;7.40;4.20;;;;;;;9.85;70.27;100290.34;108455;1284;22576;-64
2022/04/30 04:18:56;;;;;;;5.80;3.10;;;;;;;9.88;68.88;100290.27;108647;1282;137714;-65
2022/04/30 04:21:24;;;;;;;4.90;2.30;;;;;;;9.90;68.51;100289.70;108720;1282;23053;-64
2022/04/30 04:26:41;;;;;;;2.90;2.10;;;;;;;9.92;67.91;100291.08;108819;1283;22470;-64
2022/04/30 04:29:10;;;;;;;3.50;2.00;;;;;;;9.91;68.03;100293.11;108691;1282;137255;-64
2022/04/30 04:31:38;;;;;;;3.20;2.00;;;;;;;9.87;66.97;100287.17;108816;1282;22410;-64
2022/04/30 04:34:07;;;;;;;3.50;1.60;;;;;;;9.82;65.75;100282.05;108756;1283;22431;-64
2022/04/30 04:36:36;;;;;;;2.10;1.60;;;;;;;9.81;64.93;100280.02;108699;1281;137435;-64
2022/04/30 04:39:12;;;;;;;2.60;1.60;;;;;;;9.80;65.17;100275.16;108808;1282;22463;-64
2022/04/30 04:41:41;;;;;;;3.50;1.60;;;;;;;9.81;64.48;100262.82;108670;1282;137105;-65
2022/04/30 04:44:09;;;;;;;3.30;2.00;;;;;;;9.83;62.31;100256.70;108779;1282;22281;-65
2022/04/30 04:46:38;;;;;;;2.20;1.50;;;;;;;9.89;62.05;100264.41;108764;1282;22451;-65
2022/04/30 04:49:08;;;;;;;5.70;1.80;;;;;;;9.94;63.12;100262.86;108663;1282;137893;-64
2022/04/30 04:51:36;;;;;;;3.00;1.10;;;;;;;9.98;62.60;100274.05;108763;1282;22476;-64
2022/04/30 04:54:04;;;;;;;4.20;1.90;;;;;;;10.01;63.17;100274.67;108691;1282;137086;-64
2022/04/30 04:56:32;;;;;;;4.10;1.80;;;;;;;10.01;64.12;100275.88;108829;1282;22496;-64
2022/04/30 04:59:00;;;;;;;3.40;2.00;;;;;;;9.98;64.94;100279.77;108755;1282;23186;-65
2022/04/30 05:01:28;;;;;;;2.80;2.00;;;;;;;9.98;65.60;100282.59;108610;1282;138073;-65
2022/04/30 05:03:57;;;;;;;6.70;2.40;;;;;;;9.98;66.20;100285.57;108723;1282;23796;-64
2022/04/30 05:06:25;;;;;;;3.90;2.70;;;;;;;9.97;67.06;100294.16;108631;1282;138275;-65
2022/04/30 05:08:53;;;;;;;2.90;2.30;;;;;;;9.98;67.82;100296.41;108757;1283;22464;-64
2022/04/30 05:11:23;;;;;;;9.20;6.90;;;;;;;9.99;68.23;100296.35;109094;1277;137945;-65
2022/04/30 05:13:51;;;;;;;11.50;7.70;;;;;;;9.98;67.70;100300.94;109230;1277;22239;-65
2022/04/30 05:16:19;;;;;;;11.30;7.40;;;;;;;9.95;67.04;100298.38;109149;1277;22544;-65
2022/04/30 05:18:47;;;;;;;15.50;8.00;;;;;;;9.94;66.64;100305.16;109083;1277;138837;-65
2022/04/30 05:21:15;;;;;;;11.90;7.20;;;;;;;9.96;66.60;100301.77;109210;1277;22407;-65
2022/04/30 05:23:43;;;;;;;12.10;7.20;;;;;;;9.98;66.47;100299.59;109064;1277;140132;-65
2022/04/30 05:26:11;;;;;;;12.80;7.70;;;;;;;10.02;66.57;100298.75;109242;1276;22272;-65
2022/04/30 05:28:39;;;;;;;11.90;7.40;;;;;;;10.07;66.57;100305.36;109200;1277;22401;-65
2022/04/30 05:31:07;;;;;;;12.90;7.90;;;;;;;10.10;66.63;100301.79;109048;1277;138218;-65
2022/04/30 05:33:35;;;;;;;12.50;7.40;;;;;;;10.14;66.92;100301.88;109185;1277;23436;-65
2022/04/30 05:36:04;;;;;;;10.00;7.30;;;;;;;10.18;67.17;100300.73;109064;1277;137330;-65
2022/04/30 05:38:32;;;;;;;10.90;7.30;;;;;;;10.20;67.36;100300.77;109156;1277;23236;-65
2022/04/30 05:41:01;;;;;;;9.80;6.10;;;;;;;10.22;67.12;100301.90;109216;1276;23310;-63
2022/04/30 05:43:30;;;;;;;15.10;6.90;;;;;;;10.24;66.83;100297.04;109049;1277;139382;-63
2022/04/30 05:45:58;;;;;;;14.70;5.60;;;;;;;10.29;66.70;100297.79;109178;1277;22452;-63
2022/04/30 05:48:26;;;;;;;7.90;5.40;;;;;;;10.33;66.01;100296.42;109070;1277;138484;-64
2022/04/30 05:50:54;;;;;;;10.70;5.20;;;;;;;10.38;65.79;100294.84;109215;1277;22443;-64
2022/04/30 05:53:22;;;;;;;6.40;4.70;;;;;;;10.42;65.75;100296.41;109126;1277;139721;-63
2022/04/30 05:55:51;;;;;;;7.80;4.80;;;;;;;10.49;65.93;100300.88;109211;1277;22428;-64
2022/04/30 05:58:19;;;;;;;10.10;4.90;;;;;;;10.56;65.68;100299.16;109176;1277;22486;-64
2022/04/30 06:00:47;;;;;;;7.20;4.30;;;;;;;10.62;64.91;100298.72;109044;1276;139147;-65
2022/04/30 06:03:15;;;;;;;8.60;4.10;;;;;;;10.70;64.40;100300.84;109061;1277;22398;-65
2022/04/30 06:05:44;;;;;;;5.30;3.70;;;;;;;10.77;64.09;100300.02;109042;1277;139234;-65
2022/04/30 06:08:12;;;;;;;5.60;3.40;;;;;;;10.84;63.25;100299.34;109193;1277;23088;-65
2022/04/30 06:10:40;;;;;;;15.90;6.50;;;;;;;10.90;62.82;100297.95;109173;1276;23483;-65
2022/04/30 06:13:08;;;;;;;5.30;3.10;;;;;;;10.98;62.46;100300.17;109027;1277;138680;-65
2022/04/30 06:15:39;;;;;;;4.90;3.40;;;;;;;11.06;61.51;100304.00;109083;1277;22373;-65
2022/04/30 06:18:08;;;;;;;4.80;3.50;;;;;;;11.12;61.37;100302.91;109116;1277;138950;-65
2022/04/30 06:20:36;;;;;;;7.20;3.50;;;;;;;11.18;61.18;100301.85;109161;1277;22416;-65
2022/04/30 06:23:06;;;;;;;7.10;3.50;;;;;;;11.24;60.17;100299.61;109405;1274;22491;-64
2022/04/30 06:25:37;;;;;;;6.70;3.30;;;;;;;11.28;60.12;100300.33;109264;1274;138165;-64
2022/04/30 06:28:06;;;;;;;5.40;3.10;;;;;;;11.33;60.12;100300.39;109439;1274;23543;-64
2022/04/30 06:30:35;;;;;;;7.70;3.60;;;;;;;11.38;59.41;100296.55;109336;1274;137341;-65
2022/04/30 06:33:03;;;;;;;5.90;3.30;;;;;;;11.42;59.18;100294.64;109358;1274;22483;-64
2022/04/30 06:35:32;;;;;;;4.10;3.20;;;;;;;11.47;59.20;100297.48;109288;1274;137806;-65
2022/04/30 06:38:00;;;;;;;5.20;3.00;;;;;;;11.51;59.02;100297.67;109336;1274;22433;-65
2022/04/30 06:40:29;;;;;;;4.20;2.30;;;;;;;11.54;58.96;100292.90;109357;1274;22402;-65
2022/04/30 06:42:59;;;;;;;3.60;2.10;;;;;;;11.59;58.15;100297.48;109319;1273;138712;-65
2022/04/30 06:45:27;;;;;;;5.10;2.40;;;;;;;11.63;58.06;100299.26;109442;1274;22440;-65
2022/04/30 06:47:55;;;;;;;9.00;2.50;;;;;;;11.68;57.57;100302.89;109349;1274;138410;-65
2022/04/30 06:50:25;;;;;;;4.30;2.60;;;;;;;11.74;58.02;100303.44;109445;1274;22386;-65
2022/04/30 06:58:40;;;;;;;3.90;3.00;;;;;;;12.03;56.04;100311.91;109424;1274;22617;-65
2022/04/30 07:04:07;;;;;;;6.70;2.60;;;;;;;12.10;55.48;100309.36;108889;1279;22467;-65
2022/04/30 07:06:36;;;;;;;5.30;2.50;;;;;;;12.13;55.78;100306.06;108766;1279;137488;-65
2022/04/30 07:09:07;;;;;;;4.90;2.50;;;;;;;12.17;55.17;100308.54;108660;1280;22530;-65
2022/04/30 07:11:36;;;;;;;5.00;2.50;;;;;;;12.21;54.67;100305.92;108777;1280;138533;-65
2022/04/30 07:14:05;;;;;;;4.00;2.20;;;;;;;12.24;53.78;100312.61;108819;1280;22658;-65
2022/04/30 07:16:33;;;;;;;5.50;2.80;;;;;;;12.28;54.38;100308.98;108873;1280;22484;-65
2022/04/30 07:19:03;;;;;;;3.70;2.50;;;;;;;12.36;55.00;100309.66;108764;1279;138245;-65
2022/04/30 07:21:31;;;;;;;6.50;3.20;;;;;;;12.48;54.65;100308.69;108839;1280;22603;-65
2022/04/30 07:23:59;;;;;;;5.80;2.40;;;;;;;12.59;53.51;100308.08;108797;1280;138745;-65
2022/04/30 07:26:28;;;;;;;3.60;2.20;;;;;;;12.67;53.41;100302.73;108866;1280;22471;-65
2022/04/30 07:28:56;;;;;;;3.80;2.40;;;;;;;12.75;52.89;100304.86;108911;1279;22446;-65
2022/04/30 07:31:24;;;;;;;4.40;2.70;;;;;;;12.79;51.51;100301.91;108546;1281;137654;-65
2022/04/30 07:33:54;;;;;;;4.00;2.50;;;;;;;12.84;51.48;100299.45;108930;1278;23296;-65
2022/04/30 07:36:22;;;;;;;4.50;2.00;;;;;;;12.91;51.21;100297.30;106519;1280;137767;-64
2022/04/30 07:38:51;;;;;;;4.30;2.00;;;;;;;12.98;50.53;100297.06;108795;1279;23685;-65
2022/04/30 07:41:19;;;;;;;6.00;2.80;;;;;;;13.04;50.58;100294.02;108978;1274;138634;-65
2022/04/30 07:43:47;;;;;;;3.30;2.50;;;;;;;13.12;49.86;100293.63;109233;1274;22256;-64
2022/04/30 07:46:16;;;;;;;6.00;2.90;;;;;;;13.18;49.57;100292.72;109175;1274;23311;-64
2022/04/30 07:48:44;;;;;;;3.90;2.50;;;;;;;13.18;49.32;100291.62;109315;1274;137645;-64
2022/04/30 07:51:18;;;;;;;6.60;3.00;;;;;;;13.17;49.43;100290.58;109393;1274;22597;-65
2022/04/30 07:53:49;;;;;;;4.80;2.90;;;;;;;13.15;49.40;100287.86;109334;1274;138268;-65
2022/04/30 07:56:18;;;;;;;8.60;2.90;;;;;;;13.14;49.42;100288.39;109413;1274;22565;-65
2022/04/30 07:58:46;;;;;;;4.00;2.90;;;;;;;13.15;49.32;100286.09;109408;1274;22460;-65
2022/04/30 08:01:14;;;;;;;7.40;3.00;;;;;;;13.17;49.33;100284.33;109280;1274;153317;-65
2022/04/30 08:03:44;;;;;;;4.00;2.20;;;;;;;13.21;49.11;100285.64;109459;1274;22547;-65
2022/04/30 08:06:13;;;;;;;5.20;2.60;;;;;;;13.27;48.88;100283.09;109322;1274;139371;-65
2022/04/30 08:08:42;;;;;;;6.70;2.50;;;;;;;13.31;48.50;100275.48;109390;1274;22570;-65
2022/04/30 08:11:10;;;;;;;7.10;3.10;;;;;;;13.40;49.42;100275.90;109383;1274;23373;-65
2022/04/30 08:13:40;;;;;;;7.00;4.10;;;;;;;13.53;48.91;100270.70;109335;1274;137822;-65
2022/04/30 08:16:09;;;;;;;16.80;6.40;;;;;;;13.68;48.87;100272.00;109230;1274;22424;-65
2022/04/30 08:18:38;;;;;;;9.10;4.50;;;;;;;13.82;48.52;100271.73;109106;1277;138494;-65
2022/04/30 08:21:07;;;;;;;10.20;3.70;;;;;;;13.94;48.25;100270.52;109379;1274;22635;-65
2022/04/30 08:23:36;;;;;;;9.00;3.90;;;;;;;14.02;47.18;100267.23;109301;1274;138862;-65
2022/04/30 08:26:04;;;;;;;4.60;3.10;;;;;;;14.06;46.85;100267.44;109444;1273;22586;-65
2022/04/30 08:28:32;;;;;;;7.30;3.80;;;;;;;14.06;47.44;100265.20;109450;1274;22477;-65
2022/04/30 08:31:00;;;;;;;15.70;5.70;;;;;;;14.07;47.23;100260.77;109308;1274;138752;-65
2022/04/30 08:33:29;;;;;;;9.10;5.70;;;;;;;14.10;46.77;100262.42;109423;1274;22465;-65
2022/04/30 08:35:57;;;;;;;11.30;5.30;;;;;;;14.07;47.18;100260.27;109300;1274;137607;-65
2022/04/30 08:38:26;;;;;;;11.90;6.00;;;;;;;14.08;47.15;100264.29;109417;1274;22465;-63
2022/04/30 08:40:54;;;;;;;6.60;3.00;;;;;;;14.08;47.56;100261.21;109387;1274;23426;-64
2022/04/30 08:43:23;;;;;;;7.50;4.70;;;;;;;14.10;46.55;100259.80;109234;1274;137659;-64
2022/04/30 08:45:52;;;;;;;8.90;4.90;;;;;;;14.07;46.57;100260.55;109414;1274;22555;-65
2022/04/30 08:48:20;;;;;;;12.80;5.90;;;;;;;14.01;47.28;100261.48;109324;1274;137824;-65
2022/04/30 08:50:48;;;;;;;12.60;6.00;;;;;;;13.98;47.93;100262.56;109435;1274;22429;-65
2022/04/30 08:53:16;;;;;;;10.00;5.60;;;;;;;13.94;48.35;100263.80;109277;1274;138697;-64
2022/04/30 08:55:46;;;;;;;14.40;6.20;;;;;;;13.91;48.97;100258.39;109445;1274;22467;-65
2022/04/30 08:58:15;;;;;;;8.80;4.40;;;;;;;13.94;49.33;100257.20;109439;1274;22358;-65
2022/04/30 09:00:45;;;;;;;6.20;3.10;;;;;;;13.94;48.21;100260.66;108998;1274;138594;-65
2022/04/30 09:03:18;;;;;;;9.30;4.30;;;;;;;13.91;48.08;100262.44;109340;1275;22449;-64
2022/04/30 09:05:48;;;;;;;7.40;3.50;;;;;;;13.87;48.66;100258.84;108190;1274;138604;-63
2022/04/30 09:08:16;;;;;;;5.10;3.10;;;;;;;13.88;48.66;100261.53;107296;1273;22505;-63
2022/04/30 09:10:50;;;;;;;3.80;2.40;;;;;;;13.86;48.71;100260.20;109468;1273;23483;-63
2022/04/30 09:13:18;;;;;;;4.40;2.60;;;;;;;13.85;48.19;100256.16;109134;1274;139165;-64
2022/04/30 09:15:54;;;;;;;6.10;3.70;;;;;;;13.79;48.30;100253.98;109347;1273;22545;-64
2022/04/30 09:18:22;;;;;;;3.10;2.60;;;;;;;13.69;48.27;100248.18;109360;1274;139817;-64
2022/04/30 09:20:53;;;;;;;4.30;2.40;;;;;;;13.68;48.01;100251.36;109440;1273;22415;-65
2022/04/30 09:23:27;;;;;;;3.30;2.40;;;;;;;13.68;48.48;100252.52;109380;1273;138221;-64
2022/04/30 09:25:57;;;;;;;3.50;2.40;;;;;;;13.72;48.07;100250.02;109192;1277;23783;-65
2022/04/30 09:28:33;;;;;;;5.00;2.30;;;;;;;13.77;47.64;100252.04;109429;1274;23185;-65
2022/04/30 09:31:08;;;;;;;8.10;3.10;;;;;;;13.83;47.37;100246.23;109110;1274;138742;-65
2022/04/30 09:33:38;;;;;;;7.00;2.60;;;;;;;13.87;46.95;100247.39;109457;1273;22615;-64
2022/04/30 09:38:55;;;;;;;3.20;2.00;;;;;;;13.97;46.87;100243.16;109464;1273;23507;-65
2022/04/30 09:41:24;;;;;;;4.80;2.10;;;;;;;14.02;45.91;100240.77;109346;1272;137587;-64
2022/04/30 09:44:00;;;;;;;3.60;1.90;;;;;;;14.04;45.29;100244.40;109445;1274;22421;-65
2022/04/30 09:46:29;;;;;;;7.20;1.80;;;;;;;14.02;44.82;100240.27;109385;1274;22511;-65
2022/04/30 09:54:36;;;;;;;6.30;2.60;;;;;;;13.97;43.25;100242.95;109379;1273;137766;-65
2022/04/30 09:57:07;;;;;;;3.70;2.00;;;;;;;13.90;42.62;100242.87;109453;1273;22447;-65
2022/04/30 09:59:39;;;;;;;2.20;1.70;;;;;;;13.79;42.63;100242.90;109243;1274;138559;-64
2022/04/30 10:02:09;;;;;;;3.90;2.10;;;;;;;13.72;42.72;100248.16;109214;1274;23210;-64
2022/04/30 10:04:37;;;;;;;3.40;2.10;;;;;;;13.67;42.43;100253.54;109474;1273;22427;-64
2022/04/30 10:07:07;;;;;;;5.00;2.90;;;;;;;13.63;42.27;100248.73;109313;1274;138582;-64
2022/04/30 10:09:37;;;;;;;5.50;2.00;;;;;;;13.59;42.46;100249.29;109440;1274;23707;-64
2022/04/30 10:12:26;;;;;;;4.60;2.10;;;;;;;13.56;41.94;100246.96;109397;1273;138529;-64
2022/04/30 10:15:20;;;;;;;2.60;1.80;;;;;;;13.52;42.32;100246.56;109248;1274;23212;-65
2022/04/30 10:17:53;;;;;;;3.40;2.00;;;;;;;13.52;42.11;100244.30;109265;1274;138400;-64
2022/04/30 10:20:32;;;;;;;3.70;1.90;;;;;;;13.52;42.02;100249.79;109389;1274;22274;-65
2022/04/30 10:23:04;;;;;;;3.80;2.40;;;;;;;13.51;41.47;100248.58;109444;1273;22548;-65
2022/04/30 10:25:33;;;;;;;3.30;1.80;;;;;;;13.50;40.82;100246.04;109362;1274;138431;-64
2022/04/30 10:28:05;;;;;;;5.50;2.00;;;;;;;13.45;40.51;100247.90;109386;1274;22534;-64
2022/04/30 10:30:38;;;;;;;2.70;2.00;;;;;;;13.40;40.87;100252.80;109321;1274;137543;-64
2022/04/30 10:33:07;;;;;;;2.40;1.70;;;;;;;13.34;40.71;100248.84;109309;1274;22418;-64
2022/04/30 10:35:37;;;;;;;4.10;1.60;;;;;;;13.31;40.54;100251.00;109341;1274;137706;-64
2022/04/30 10:38:23;;;;;;;3.80;1.60;;;;;;;13.27;40.60;100255.17;109359;1273;22286;-64
2022/04/30 10:40:52;;;;;;;2.60;1.70;;;;;;;13.22;40.37;100255.52;109278;1274;22467;-65
2022/04/30 10:43:51;;;;;;;2.70;1.70;;;;;;;13.19;40.88;100258.48;109166;1274;138013;-64
2022/04/30 10:46:22;;;;;;;4.00;1.50;;;;;;;13.16;40.88;100257.61;109382;1274;23584;-64
2022/04/30 10:48:50;;;;;;;4.00;1.80;;;;;;;13.15;40.62;100257.81;109337;1274;139212;-65
2022/04/30 10:51:37;;;;;;;4.70;1.80;;;;;;;13.12;40.26;100254.27;109437;1272;23184;-64
2022/04/30 10:54:10;;;;;;;3.00;1.60;;;;;;;13.09;40.10;100252.82;109353;1274;138475;-64
2022/04/30 10:56:39;;;;;;;5.50;2.10;;;;;;;13.07;39.97;100253.73;109440;1273;22438;-65
2022/04/30 10:59:08;;;;;;;2.30;1.60;;;;;;;13.07;39.77;100257.44;109442;1273;22553;-64
2022/04/30 11:01:36;;;;;;;2.80;1.60;;;;;;;13.08;40.21;100253.30;109376;1273;137360;-64
2022/04/30 11:04:05;;;;;;;3.30;1.80;;;;;;;13.11;40.14;100247.25;109322;1274;22896;-64
2022/04/30 11:06:33;;;;;;;2.70;1.60;;;;;;;13.16;39.84;100249.30;109270;1274;138427;-64
2022/04/30 11:09:03;;;;;;;2.60;1.60;;;;;;;13.17;39.92;100249.26;109188;1276;22525;-64
2022/04/30 11:11:33;;;;;;;2.10;1.60;;;;;;;13.18;39.40;100249.22;109186;1275;139987;-64
2022/04/30 11:14:05;;;;;;;3.30;1.70;;;;;;;13.20;40.05;100249.35;109194;1277;22475;-64
2022/04/30 11:16:35;;;;;;;5.60;1.50;;;;;;;13.23;40.10;100251.14;109298;1275;22435;-64
2022/04/30 11:19:11;;;;;;;2.20;1.70;;;;;;;13.27;40.26;100246.03;109246;1276;138824;-64
2022/04/30 11:21:43;;;;;;;3.10;1.70;;;;;;;13.32;40.67;100246.73;109247;1276;23663;-65
2022/04/30 11:24:11;;;;;;;4.30;1.70;;;;;;;13.36;40.49;100246.73;109236;1275;137532;-64
2022/04/30 11:26:41;;;;;;;3.70;1.80;;;;;;;13.40;40.53;100243.87;109334;1276;22439;-65
2022/04/30 11:29:10;;;;;;;2.30;1.70;;;;;;;13.41;40.54;100237.02;109318;1277;23462;-65
2022/04/30 11:31:39;;;;;;;2.60;1.80;;;;;;;13.48;40.25;100242.07;109209;1276;138167;-65
2022/04/30 11:34:13;;;;;;;3.70;1.90;;;;;;;13.46;40.13;100233.14;109357;1275;23484;-64
2022/04/30 11:36:45;;;;;;;3.40;1.80;;;;;;;13.51;40.21;100235.82;109223;1275;137247;-64
2022/04/30 11:39:14;;;;;;;2.90;1.90;;;;;;;13.53;40.12;100230.75;109343;1276;22378;-64
2022/04/30 11:41:50;;;;;;;2.80;1.70;;;;;;;13.55;40.03;100229.78;109240;1275;138074;-65
2022/04/30 11:44:24;;;;;;;4.10;2.20;;;;;;;13.57;40.24;100230.16;109315;1276;22428;-64
2022/04/30 11:46:52;;;;;;;6.70;2.10;;;;;;;13.59;40.15;100232.09;109046;1276;22521;-64
2022/04/30 11:49:22;;;;;;;3.40;2.30;;;;;;;13.59;39.81;100230.78;109167;1277;138653;-64
2022/04/30 11:52:05;;;;;;;6.10;2.10;;;;;;;13.59;39.88;100229.69;109302;1275;22241;-64
2022/04/30 11:54:36;;;;;;;2.80;1.40;;;;;;;13.60;39.74;100222.84;109006;1277;138814;-64
2022/04/30 11:57:04;;;;;;;4.00;2.00;;;;;;;13.62;40.04;100220.46;109246;1277;22496;-64
2022/04/30 11:59:36;;;;;;;2.70;2.00;;;;;;;13.65;40.40;100216.01;109202;1275;137730;-64
2022/04/30 12:02:09;;;;;;;2.70;1.80;;;;;;;13.72;40.27;100215.95;109317;1275;22551;-64
2022/04/30 12:04:42;;;;;;;2.00;1.40;;;;;;;13.76;39.61;100213.19;109325;1277;23586;-64
2022/04/30 12:07:11;;;;;;;5.40;1.80;;;;;;;13.80;39.42;100213.16;109225;1274;137745;-64
2022/04/30 12:09:59;;;;;;;3.70;1.90;;;;;;;13.82;39.27;100209.30;109450;1274;23194;-64